< Typhoon 198628 1986 Season Typhoon 198701 >
Typhoon 198629 (NORRIS)
General InformationTrack Information on Google MapsDetailed Wind InformationList of All Images || Disaster Info.ResourceGoogle EarthGE AnimationAtom FeedGeoJSON
Detalied Best Track (Time Zone = UTC)
Year Month Day Hour Lat. Long. Pressure (hPa) Wind (kt) Class Image Chart
1986 12 21 06 6.5 169.0 1002 0 2 Image Chart
1986 12 21 12 8.0 168.0 1002 0 2 Image Chart
1986 12 21 18 8.9 167.2 1002 0 2 Image Chart
1986 12 22 00 9.5 166.1 1002 0 2 Image Chart
1986 12 22 06 9.9 165.2 1000 0 2 Image Chart
1986 12 22 12 10.1 164.3 1000 0 2 Image Chart
1986 12 22 18 10.2 163.4 1000 0 2 Image Chart
1986 12 23 00 10.4 162.5 998 35 3 Image Chart
1986 12 23 06 10.9 161.2 998 35 3 Image Chart
1986 12 23 12 11.3 160.0 998 35 3 Image Chart
1986 12 23 18 11.3 159.1 998 35 3 Image Chart
1986 12 24 00 11.3 158.3 998 35 3 Image Chart
1986 12 24 06 11.4 156.5 998 40 3 Image Chart
1986 12 24 12 11.3 154.8 1000 40 3 Image Chart
1986 12 24 18 11.2 153.9 1000 40 3 Image Chart
1986 12 25 00 10.8 153.1 1000 40 3 Image Chart
1986 12 25 06 10.1 151.8 998 40 3 Image Chart
1986 12 25 12 9.9 150.1 996 40 3 Image Chart
1986 12 25 18 10.2 149.3 994 40 3 Image Chart
1986 12 26 00 10.5 148.3 992 50 4 Image Chart
1986 12 26 06 10.9 147.3 992 50 4 Image Chart
1986 12 26 12 11.4 146.1 990 50 4 Image Chart
1986 12 26 18 11.5 144.8 990 55 4 Image Chart
1986 12 27 00 11.6 143.5 985 60 4 Image Chart
1986 12 27 06 11.9 142.1 985 60 4 Image Chart
1986 12 27 12 12.3 140.7 985 60 4 Image Chart
1986 12 27 18 12.6 139.8 980 65 5 Image Chart
1986 12 28 00 13.1 138.9 975 70 5 Image Chart
1986 12 28 06 13.6 138.3 970 70 5 Image Chart
1986 12 28 12 14.0 137.8 965 80 5 Image Chart
1986 12 28 18 13.8 137.7 955 85 5 Image Chart
1986 12 29 00 13.6 137.5 955 85 5 Image Chart
1986 12 29 06 13.2 137.0 965 85 5 Image Chart
1986 12 29 12 12.6 136.3 970 75 5 Image Chart
1986 12 29 18 11.8 135.4 975 70 5 Image Chart
1986 12 30 00 11.3 134.4 980 60 4 Image Chart
1986 12 30 06 10.5 133.0 990 50 4 Image Chart
1986 12 30 12 9.8 131.6 998 45 3 Image Chart
1986 12 30 18 9.7 129.9 996 45 3 Image Chart
1986 12 31 00 9.9 128.2 996 45 3 Image Chart
1986 12 31 06 10.1 126.4 996 45 3 Image Chart
1986 12 31 12 10.4 124.4 996 40 3 Image Chart
1986 12 31 18 10.7 122.4 998 35 3 Image Chart
1987 1 1 00 10.9 120.4 1000 35 3 Image Chart
1987 1 1 06 11.3 118.5 1000 35 3 Image Chart
1987 1 1 12 12.2 117.0 1000 35 3 Image Chart
1987 1 1 18 13.2 116.0 1000 35 3 Image Chart
1987 1 2 00 14.3 115.0 1002 0 2 Image Chart
1987 1 2 06 15.5 115.0 1004 0 2 Image Chart
1987 1 2 12 16.5 115.0 1008 0 2 Image Chart
1987 1 2 18 17.5 115.0 1010 0 2 Image Chart
1987 1 3 00 18.5 115.0 1014 0 2 Image Chart
Japan Meteorological Agency Best Track Data | Correction Date : 1992-10-21
< Typhoon 198628 1986 Season Typhoon 198701 >

Help